Time;durP1;ratioP1;P1;durP2;ratioP2;P2;SDS_P1;SDS_P2;PMS_P1;PMS_P2;Temp;Humidity;BMP_temperature;BMP_pressure;BME280_temperature;BME280_humidity;BME280_pressure;Samples;Min_cycle;Max_cycle;Signal;HPM_P1;HPM_P2
2022/10/11 00:01:54;;;;;;;11.77;5.60;;;6.60;99.90;;;;;;6182872;23;20309;-73
2022/10/11 00:04:20;;;;;;;11.53;5.90;;;6.60;99.90;;;;;;6183522;23;20048;-73
2022/10/11 00:06:46;;;;;;;15.63;6.10;;;6.50;99.90;;;;;;6183643;23;19997;-73
2022/10/11 00:09:12;;;;;;;8.00;5.30;;;6.60;99.90;;;;;;6183637;23;20442;-73
2022/10/11 00:11:38;;;;;;;13.10;6.40;;;6.50;99.90;;;;;;6183489;23;20020;-74
2022/10/11 00:14:05;;;;;;;13.47;5.97;;;6.30;99.90;;;;;;6183652;23;20009;-72
2022/10/11 00:16:30;;;;;;;9.73;5.47;;;6.30;99.90;;;;;;6182815;23;20423;-73
2022/10/11 00:18:56;;;;;;;12.33;5.67;;;6.30;99.90;;;;;;6183059;23;20009;-73
2022/10/11 00:21:22;;;;;;;11.97;6.50;;;6.40;99.90;;;;;;6183574;23;20471;-73
2022/10/11 00:23:48;;;;;;;8.93;5.10;;;6.40;99.90;;;;;;6183501;23;20005;-73
2022/10/11 00:26:13;;;;;;;6.57;5.03;;;6.40;99.90;;;;;;6181818;23;20008;-73
2022/10/11 00:28:40;;;;;;;12.63;4.90;;;6.40;99.90;;;;;;6183175;23;19997;-73
2022/10/11 00:31:10;;;;;;;10.43;5.50;;;6.20;99.90;;;;;;6182603;23;20050;-73
2022/10/11 00:33:35;;;;;;;8.10;5.20;;;6.10;99.90;;;;;;6183564;23;20005;-73
2022/10/11 00:36:01;;;;;;;11.50;5.60;;;5.80;99.90;;;;;;6181358;23;20013;-73
2022/10/11 00:38:27;;;;;;;9.30;5.10;;;6.10;99.90;;;;;;6183189;23;19997;-73
2022/10/11 00:40:52;;;;;;;10.27;5.60;;;6.00;99.90;;;;;;6183253;23;20063;-73
2022/10/11 00:43:24;;;;;;;11.47;5.93;;;6.10;99.90;;;;;;6181791;23;20482;-73
2022/10/11 00:45:56;;;;;;;10.93;6.13;;;6.00;99.90;;;;;;6180875;23;20004;-73
2022/10/11 00:48:47;;;;;;;13.50;6.93;;;6.10;99.90;;;;;;6183267;23;20001;-73
2022/10/11 00:51:24;;;;;;;11.67;6.50;;;6.10;99.90;;;;;;6183165;23;20009;-73
2022/10/11 00:53:51;;;;;;;12.43;5.87;;;6.20;99.90;;;;;;6183096;23;20005;-73
2022/10/11 00:56:24;;;;;;;14.63;6.40;;;6.00;99.90;;;;;;6183137;23;20005;-73
2022/10/11 00:58:51;;;;;;;13.82;6.97;;;6.20;99.90;;;;;;6183056;23;20009;-73
2022/10/11 01:01:16;;;;;;;9.73;6.93;;;6.00;99.90;;;;;;6182668;23;20002;-73
2022/10/11 01:03:43;;;;;;;10.33;7.13;;;5.90;99.90;;;;;;6183096;23;20300;-73
2022/10/11 01:06:09;;;;;;;11.10;6.03;;;6.00;99.90;;;;;;6182913;23;19997;-73
2022/10/11 01:08:35;;;;;;;11.70;6.30;;;5.90;99.90;;;;;;6182944;23;20069;-73
2022/10/11 01:11:01;;;;;;;9.13;5.77;;;5.80;99.90;;;;;;6182721;23;20356;-73
2022/10/11 01:13:39;;;;;;;7.77;5.80;;;6.00;99.90;;;;;;6182886;23;20651;-73
2022/10/11 01:16:21;;;;;;;11.13;5.23;;;5.90;99.90;;;;;;6180518;23;20095;-73
2022/10/11 01:19:06;;;;;;;9.47;6.20;;;5.80;99.90;;;;;;6182498;23;20020;-73
2022/10/11 01:21:50;;;;;;;9.30;5.70;;;5.90;99.90;;;;;;6182830;23;20055;-73
2022/10/11 01:24:24;;;;;;;;;;;5.80;99.90;;;;;;6183518;23;20082;-73
2022/10/11 01:26:59;;;;;;;11.10;6.53;;;5.80;99.90;;;;;;6183069;23;19904;-74
2022/10/11 01:30:20;;;;;;;13.93;6.00;;;5.90;99.90;;;;;;6182781;23;20005;-73
2022/10/11 01:32:59;;;;;;;11.50;6.20;;;5.40;99.90;;;;;;6062818;23;20007;-72
2022/10/11 01:35:38;;;;;;;17.33;6.20;;;5.70;99.90;;;;;;6062939;23;20018;-73
2022/10/11 01:38:12;;;;;;;12.97;6.63;;;5.80;99.90;;;;;;6063022;23;20061;-73
2022/10/11 01:40:49;;;;;;;;;;;5.80;99.90;;;;;;6063149;23;20019;-73
2022/10/11 01:43:17;;;;;;;15.00;5.63;;;5.70;99.90;;;;;;6085247;23;21388;-72
2022/10/11 01:45:43;;;;;;;8.53;6.00;;;;;;;;;;6211499;23;20063;-75
2022/10/11 01:48:11;;;;;;;18.63;7.37;;;5.80;99.90;;;;;;6211697;23;20004;-75
2022/10/11 01:50:48;;;;;;;9.87;5.43;;;5.70;99.90;;;;;;6211586;23;20079;-76
2022/10/11 01:53:27;;;;;;;12.53;5.23;;;5.90;99.90;;;;;;6211877;23;20021;-75
2022/10/11 01:55:58;;;;;;;14.20;5.80;;;5.70;99.90;;;;;;6211538;23;20001;-75
2022/10/11 01:58:41;;;;;;;7.57;5.57;;;5.80;99.90;;;;;;6211271;23;20031;-75
2022/10/11 02:01:33;;;;;;;15.00;6.07;;;5.70;99.90;;;;;;6212120;23;20000;-75
2022/10/11 02:04:10;;;;;;;17.43;6.63;;;5.70;99.90;;;;;;6211631;23;20353;-75
2022/10/11 02:07:02;;;;;;;10.03;4.90;;;5.60;99.90;;;;;;6211806;23;20035;-75
2022/10/11 02:09:40;;;;;;;8.33;5.27;;;5.80;99.90;;;;;;6211737;23;19997;-75
2022/10/11 02:12:10;;;;;;;14.43;5.60;;;5.60;99.90;;;;;;6211343;23;19997;-76
2022/10/11 02:14:40;;;;;;;9.03;4.87;;;5.60;99.90;;;;;;6211921;23;20001;-75
2022/10/11 02:17:13;;;;;;;10.57;5.53;;;5.60;99.90;;;;;;6211789;23;20420;-75
2022/10/11 02:19:51;;;;;;;8.10;4.47;;;5.50;99.90;;;;;;6211384;23;20058;-74
2022/10/11 02:22:23;;;;;;;5.97;4.67;;;5.40;99.90;;;;;;6211687;23;20080;-74
2022/10/11 02:24:54;;;;;;;7.20;5.33;;;5.50;99.90;;;;;;6211663;23;20009;-74
2022/10/11 02:27:23;;;;;;;8.60;5.30;;;5.50;99.90;;;;;;6210794;23;19996;-76
2022/10/11 02:29:51;;;;;;;5.90;4.70;;;5.30;99.90;;;;;;6211547;23;20104;-75
2022/10/11 02:32:18;;;;;;;9.77;5.40;;;5.50;99.90;;;;;;6211530;23;20008;-75
2022/10/11 02:34:49;;;;;;;6.70;4.73;;;5.40;99.90;;;;;;6211439;23;20011;-74
2022/10/11 02:37:35;;;;;;;6.90;5.30;;;5.30;99.90;;;;;;6211585;23;20011;-75
2022/10/11 02:40:03;;;;;;;11.70;5.40;;;5.30;99.90;;;;;;6184493;23;20009;-75
2022/10/11 02:42:35;;;;;;;8.27;4.83;;;5.40;99.90;;;;;;6211069;23;20337;-74
2022/10/11 02:45:12;;;;;;;12.17;5.67;;;5.50;99.90;;;;;;6210438;23;20460;-75
2022/10/11 02:47:38;;;;;;;14.67;5.53;;;5.50;99.90;;;;;;6208799;23;20489;-75
2022/10/11 02:50:04;;;;;;;26.97;5.80;;;5.50;99.90;;;;;;6208696;23;20027;-75
2022/10/11 02:52:30;;;;;;;37.80;7.20;;;5.60;99.90;;;;;;6208797;23;20000;-75
2022/10/11 02:54:56;;;;;;;15.37;5.97;;;5.50;99.90;;;;;;6208334;23;20677;-75
2022/10/11 02:57:21;;;;;;;17.40;6.23;;;5.20;99.90;;;;;;6208529;23;19997;-75
2022/10/11 02:59:47;;;;;;;12.80;5.53;;;5.40;99.90;;;;;;6208742;23;20416;-75
2022/10/11 03:02:13;;;;;;;13.30;6.10;;;5.00;99.90;;;;;;6210564;23;20001;-75
2022/10/11 03:04:38;;;;;;;7.73;5.77;;;5.40;99.90;;;;;;6211206;23;20397;-75
2022/10/11 03:07:04;;;;;;;7.03;4.87;;;5.30;99.90;;;;;;6211085;23;20051;-75
2022/10/11 03:09:29;;;;;;;7.27;5.17;;;5.30;99.90;;;;;;6210963;23;20047;-75
2022/10/11 03:11:55;;;;;;;9.30;5.53;;;5.30;99.90;;;;;;6210567;23;20004;-75
2022/10/11 03:14:20;;;;;;;9.60;4.93;;;5.30;99.90;;;;;;6211309;23;20103;-75
2022/10/11 03:16:46;;;;;;;10.37;5.30;;;5.30;99.90;;;;;;6211194;23;20004;-75
2022/10/11 03:19:11;;;;;;;10.80;5.87;;;5.50;99.90;;;;;;6211009;23;20385;-75
2022/10/11 03:21:37;;;;;;;8.20;5.47;;;5.30;99.90;;;;;;6210997;23;20071;-75
2022/10/11 03:24:03;;;;;;;13.00;6.63;;;5.20;99.90;;;;;;6211239;23;20032;-75
2022/10/11 03:26:28;;;;;;;8.63;5.67;;;5.40;99.90;;;;;;6210624;23;20004;-76
2022/10/11 03:28:54;;;;;;;6.00;5.23;;;5.30;99.90;;;;;;6211047;23;20012;-76
2022/10/11 03:31:20;;;;;;;14.43;6.43;;;5.30;99.90;;;;;;6211062;23;20103;-76
2022/10/11 03:33:46;;;;;;;19.30;7.07;;;5.60;99.90;;;;;;6210981;23;20426;-76
2022/10/11 03:36:12;;;;;;;17.80;7.40;;;5.60;99.90;;;;;;6184773;23;20003;-75
2022/10/11 03:38:38;;;;;;;19.43;6.93;;;5.60;99.90;;;;;;6210877;23;20009;-76
2022/10/11 03:41:03;;;;;;;11.23;7.63;;;5.80;99.90;;;;;;6210624;23;20000;-77
2022/10/11 03:43:29;;;;;;;16.27;8.77;;;5.80;99.90;;;;;;6210845;23;20028;-76
2022/10/11 03:45:54;;;;;;;13.40;7.60;;;5.80;99.90;;;;;;6211044;23;20016;-75
2022/10/11 03:48:20;;;;;;;15.83;7.37;;;5.80;99.90;;;;;;6210432;23;20087;-76
2022/10/11 03:50:46;;;;;;;11.07;7.20;;;5.80;99.90;;;;;;6210693;23;20007;-76
2022/10/11 03:53:12;;;;;;;10.50;6.23;;;6.10;99.90;;;;;;6210929;23;20004;-76
2022/10/11 03:55:39;;;;;;;13.30;5.67;;;6.00;99.90;;;;;;6210287;23;20001;-76
2022/10/11 03:58:05;;;;;;;12.00;6.37;;;5.90;99.90;;;;;;6211021;23;20327;-76
2022/10/11 04:00:31;;;;;;;8.57;7.13;;;5.90;99.90;;;;;;6211156;23;20044;-76
2022/10/11 04:02:57;;;;;;;10.13;6.33;;;6.00;99.90;;;;;;6184173;23;20011;-76
2022/10/11 04:05:23;;;;;;;13.57;6.27;;;6.20;99.90;;;;;;6186180;23;20425;-76
2022/10/11 04:07:49;;;;;;;17.73;7.93;;;6.00;99.90;;;;;;6212960;23;20001;-77
2022/10/11 04:10:15;;;;;;;13.00;6.30;;;6.10;99.90;;;;;;6211938;23;20031;-76
2022/10/11 04:12:41;;;;;;;8.50;6.63;;;6.10;99.90;;;;;;6212548;23;20005;-76
2022/10/11 04:15:07;;;;;;;9.83;6.63;;;6.00;99.90;;;;;;6212311;23;20028;-76
2022/10/11 04:17:32;;;;;;;11.63;6.10;;;6.00;99.90;;;;;;6212434;23;20004;-76
2022/10/11 04:19:58;;;;;;;7.63;6.10;;;5.90;99.90;;;;;;6211692;23;20012;-75
2022/10/11 04:22:23;;;;;;;9.80;6.27;;;6.10;99.90;;;;;;6212226;23;20008;-75
2022/10/11 04:24:49;;;;;;;6.07;5.37;;;;;;;;;;6211901;23;20004;-76
2022/10/11 04:27:15;;;;;;;7.90;5.47;;;5.90;99.90;;;;;;6212425;23;19993;-76
2022/10/11 04:29:40;;;;;;;10.07;6.10;;;6.00;99.90;;;;;;6212300;23;20000;-75
2022/10/11 04:32:06;;;;;;;9.60;6.53;;;5.90;99.90;;;;;;6212332;23;20027;-75
2022/10/11 04:34:31;;;;;;;11.50;6.37;;;5.90;99.90;;;;;;6211390;23;20004;-75
2022/10/11 04:36:57;;;;;;;7.47;5.70;;;7.60;99.90;;;;;;6211783;23;20430;-76
2022/10/11 04:39:23;;;;;;;6.87;5.50;;;;;;;;;;6212694;23;20016;-76
2022/10/11 04:41:49;;;;;;;6.77;5.27;;;6.10;99.90;;;;;;6212662;23;20004;-76
2022/10/11 04:44:15;;;;;;;9.67;5.47;;;;;;;;;;6205810;23;20008;-75
2022/10/11 04:46:40;;;;;;;6.50;5.60;;;6.00;99.90;;;;;;6212447;23;20004;-76
2022/10/11 04:49:06;;;;;;;9.63;5.63;;;6.00;99.90;;;;;;6212392;23;20072;-75
2022/10/11 04:51:32;;;;;;;8.73;5.33;;;;;;;;;;6211837;23;20007;-76
2022/10/11 04:53:58;;;;;;;7.63;6.10;;;6.00;99.90;;;;;;6212088;23;20433;-75
2022/10/11 04:56:23;;;;;;;10.70;6.17;;;5.50;99.90;;;;;;6212357;23;19997;-75
2022/10/11 04:58:52;;;;;;;8.17;5.40;;;5.90;99.90;;;;;;6211661;23;19997;-75
2022/10/11 05:01:19;;;;;;;7.03;5.43;;;5.80;99.90;;;;;;6211871;23;20005;-76
2022/10/11 05:03:44;;;;;;;8.13;6.00;;;5.60;99.90;;;;;;6211872;23;19999;-76
2022/10/11 05:06:10;;;;;;;5.97;4.93;;;5.70;99.90;;;;;;6211466;23;20067;-76
2022/10/11 05:08:36;;;;;;;9.53;5.40;;;5.60;99.90;;;;;;6212199;23;20001;-75
2022/10/11 05:11:07;;;;;;;6.23;5.57;;;5.70;99.90;;;;;;6212014;23;20425;-75
2022/10/11 05:13:34;;;;;;;9.17;5.93;;;5.70;99.90;;;;;;6212165;23;19996;-75
2022/10/11 05:16:00;;;;;;;8.60;6.10;;;5.70;99.90;;;;;;6211736;23;20008;-75
2022/10/11 05:18:25;;;;;;;9.37;5.93;;;5.60;99.90;;;;;;6211766;23;19992;-75
2022/10/11 05:21:01;;;;;;;6.43;5.20;;;5.70;99.90;;;;;;6211392;23;20001;-75
2022/10/11 05:23:28;;;;;;;7.30;5.30;;;5.50;99.90;;;;;;6212080;23;19997;-76
2022/10/11 05:25:54;;;;;;;7.60;5.90;;;5.60;99.90;;;;;;6211965;23;20012;-75
2022/10/11 05:28:19;;;;;;;8.23;5.57;;;5.50;99.90;;;;;;6212388;23;20026;-76
2022/10/11 05:30:45;;;;;;;6.17;4.63;;;5.40;99.90;;;;;;6212228;23;20008;-75
2022/10/11 05:33:10;;;;;;;9.93;5.53;;;5.50;99.90;;;;;;6211957;23;20388;-75
2022/10/11 05:35:36;;;;;;;9.17;5.70;;;5.40;99.90;;;;;;6211483;23;20028;-76
2022/10/11 05:38:01;;;;;;;7.53;5.03;;;5.10;99.90;;;;;;6212102;23;20000;-76
2022/10/11 05:40:27;;;;;;;8.20;5.70;;;5.30;99.90;;;;;;6211845;23;20028;-75
2022/10/11 05:42:52;;;;;;;6.27;4.90;;;5.10;99.90;;;;;;6211683;23;19997;-75
2022/10/11 05:45:18;;;;;;;6.67;5.27;;;5.20;99.90;;;;;;6211691;23;20441;-75
2022/10/11 05:47:43;;;;;;;7.93;5.43;;;5.30;99.90;;;;;;6184903;23;20009;-76
2022/10/11 05:50:09;;;;;;;5.93;5.03;;;5.30;99.90;;;;;;6211064;23;20369;-75
2022/10/11 05:52:34;;;;;;;7.40;5.67;;;5.20;99.90;;;;;;6211954;23;20009;-76
2022/10/11 05:55:02;;;;;;;8.83;6.30;;;5.20;99.90;;;;;;6211697;23;20004;-75
2022/10/11 05:57:27;;;;;;;8.70;5.37;;;5.10;99.90;;;;;;6211827;23;19997;-75
2022/10/11 05:59:53;;;;;;;7.20;5.90;;;5.10;99.90;;;;;;6211666;23;20062;-75
2022/10/11 06:02:19;;;;;;;9.10;5.70;;;5.40;99.90;;;;;;6212243;23;20475;-72
2022/10/11 06:04:44;;;;;;;11.67;6.43;;;5.40;99.90;;;;;;6211083;23;19997;-72
2022/10/11 06:07:10;;;;;;;10.37;6.10;;;5.20;99.90;;;;;;6211584;23;20015;-72
2022/10/11 06:09:35;;;;;;;7.80;5.87;;;5.30;99.90;;;;;;6211654;23;20329;-72
2022/10/11 06:12:01;;;;;;;7.97;5.80;;;5.20;99.90;;;;;;6211357;23;20107;-73
2022/10/11 06:14:26;;;;;;;13.07;9.20;;;5.30;99.90;;;;;;6211542;23;20362;-72
2022/10/11 06:16:52;;;;;;;15.33;8.20;;;5.30;99.90;;;;;;6211527;23;20452;-72
2022/10/11 06:19:18;;;;;;;13.63;7.27;;;5.40;99.90;;;;;;6211028;23;20480;-72
2022/10/11 06:21:44;;;;;;;8.80;6.77;;;5.40;99.90;;;;;;6211594;23;20357;-72
2022/10/11 06:24:11;;;;;;;9.80;6.93;;;5.40;99.90;;;;;;6211601;23;20001;-72
2022/10/11 06:26:37;;;;;;;10.93;6.87;;;5.60;99.90;;;;;;6211244;23;20001;-72
2022/10/11 06:29:03;;;;;;;8.47;6.40;;;5.20;99.90;;;;;;6211138;23;20095;-71
2022/10/11 06:31:28;;;;;;;8.83;6.80;;;5.50;99.90;;;;;;6211688;23;20839;-71
2022/10/11 06:33:54;;;;;;;7.70;5.90;;;;;;;;;;6210611;23;20008;-72
2022/10/11 06:36:20;;;;;;;11.87;6.70;;;5.60;99.90;;;;;;6211228;23;20146;-73
2022/10/11 06:38:45;;;;;;;9.93;7.03;;;5.60;99.90;;;;;;6211245;23;20299;-71
2022/10/11 06:41:12;;;;;;;11.53;7.50;;;5.80;99.90;;;;;;6211037;23;20071;-72
2022/10/11 06:43:38;;;;;;;11.43;7.13;;;6.00;99.90;;;;;;6210969;23;20004;-71
2022/10/11 06:46:03;;;;;;;11.27;7.47;;;5.80;99.90;;;;;;6211596;23;20013;-72
2022/10/11 06:48:30;;;;;;;14.33;8.40;;;5.90;99.90;;;;;;6210627;23;20059;-72
2022/10/11 06:50:57;;;;;;;10.77;7.30;;;5.90;99.90;;;;;;6211079;23;20083;-72
2022/10/11 06:53:23;;;;;;;12.30;8.50;;;;;;;;;;6211173;23;20334;-71
2022/10/11 06:55:49;;;;;;;12.37;7.80;;;6.10;99.90;;;;;;6211075;23;20000;-71
2022/10/11 06:58:14;;;;;;;16.00;8.33;;;6.30;99.90;;;;;;6208178;23;20035;-72
2022/10/11 07:00:40;;;;;;;12.23;8.70;;;6.40;99.90;;;;;;6210353;23;20008;-71
2022/10/11 07:03:07;;;;;;;13.40;9.40;;;6.40;99.90;;;;;;6209970;23;19997;-72
2022/10/11 07:05:33;;;;;;;15.47;9.37;;;6.40;99.90;;;;;;6207015;23;20011;-72
2022/10/11 07:08:00;;;;;;;15.27;9.23;;;6.40;99.90;;;;;;6182044;23;20001;-72
2022/10/11 07:10:25;;;;;;;15.10;10.13;;;6.50;99.90;;;;;;6209047;23;20008;-72
2022/10/11 07:12:51;;;;;;;16.17;9.50;;;6.60;99.90;;;;;;6210144;23;19997;-72
2022/10/11 07:15:17;;;;;;;15.03;10.23;;;6.60;99.90;;;;;;6210134;23;20045;-71
2022/10/11 07:17:42;;;;;;;18.90;11.77;;;6.90;99.90;;;;;;6206969;23;20012;-71
2022/10/11 07:20:08;;;;;;;15.07;10.17;;;7.10;99.90;;;;;;6210138;23;20012;-72
2022/10/11 07:22:34;;;;;;;16.83;10.90;;;7.00;99.90;;;;;;6210728;23;20011;-72
2022/10/11 07:25:00;;;;;;;16.10;10.03;;;7.10;99.90;;;;;;6210449;23;20388;-72
2022/10/11 07:27:25;;;;;;;15.27;10.37;;;7.40;99.90;;;;;;6208549;23;20005;-72
2022/10/11 07:29:51;;;;;;;18.60;9.50;;;7.10;99.90;;;;;;6207339;23;20039;-72
2022/10/11 07:32:16;;;;;;;19.63;9.50;;;7.20;99.90;;;;;;6207760;23;19997;-72
2022/10/11 07:34:42;;;;;;;18.83;10.73;;;7.40;99.90;;;;;;6210578;23;20000;-72
2022/10/11 07:37:07;;;;;;;13.43;9.87;;;7.40;99.90;;;;;;6210967;23;20004;-72
2022/10/11 07:39:33;;;;;;;22.53;10.83;;;7.50;99.90;;;;;;6211808;23;20461;-72
2022/10/11 07:41:59;;;;;;;12.57;10.07;;;7.50;99.90;;;;;;6210396;23;20442;-72
2022/10/11 07:44:24;;;;;;;18.17;10.63;;;7.60;99.90;;;;;;6212393;23;20040;-73
2022/10/11 07:46:50;;;;;;;18.37;10.37;;;7.70;99.90;;;;;;6211646;23;20039;-73
2022/10/11 07:49:15;;;;;;;18.73;10.63;;;7.70;99.90;;;;;;6212471;23;20000;-73
2022/10/11 07:51:41;;;;;;;17.70;10.07;;;7.70;99.90;;;;;;6211543;23;20004;-72
2022/10/11 07:54:06;;;;;;;15.00;10.93;;;7.80;99.90;;;;;;6212190;23;20000;-73
2022/10/11 07:56:32;;;;;;;21.53;11.23;;;7.90;99.90;;;;;;6211421;23;20009;-72
2022/10/11 07:59:00;;;;;;;18.27;10.60;;;8.00;99.90;;;;;;6212067;23;20005;-72
2022/10/11 08:01:27;;;;;;;16.80;11.20;;;7.70;99.90;;;;;;6211484;23;20016;-73
2022/10/11 08:03:53;;;;;;;24.03;11.10;;;8.00;99.90;;;;;;6210482;23;20000;-72
2022/10/11 08:06:21;;;;;;;18.40;10.90;;;8.20;99.90;;;;;;6212033;23;20014;-72
2022/10/11 08:08:47;;;;;;;18.30;11.23;;;8.20;99.90;;;;;;6212284;23;20020;-72
2022/10/11 08:11:21;;;;;;;19.33;11.47;;;8.40;99.90;;;;;;6211518;23;20374;-72
2022/10/11 08:13:47;;;;;;;14.10;10.10;;;8.30;99.90;;;;;;6210625;23;20347;-72
2022/10/11 08:16:13;;;;;;;21.37;11.00;;;9.20;99.90;;;;;;6211443;23;20064;-72
2022/10/11 08:18:38;;;;;;;17.97;10.57;;;8.40;99.90;;;;;;6212259;23;20502;-71
2022/10/11 08:21:10;;;;;;;19.63;11.43;;;8.40;99.90;;;;;;6211982;23;20440;-71
2022/10/11 08:23:35;;;;;;;18.87;11.07;;;8.50;99.90;;;;;;6211850;23;20004;-71
2022/10/11 08:26:01;;;;;;;18.43;11.57;;;8.50;99.90;;;;;;6210270;23;20000;-72
2022/10/11 08:28:27;;;;;;;16.00;11.00;;;8.60;99.90;;;;;;6211828;23;20028;-72
2022/10/11 08:30:53;;;;;;;17.93;10.93;;;8.60;99.90;;;;;;6210938;23;20008;-72
2022/10/11 08:33:23;;;;;;;16.97;11.47;;;9.30;99.90;;;;;;6210822;23;20337;-72
2022/10/11 08:35:51;;;;;;;16.20;10.40;;;8.70;99.90;;;;;;6209787;23;20007;-72
2022/10/11 08:38:17;;;;;;;22.17;11.33;;;8.70;99.90;;;;;;6211288;23;20001;-72
2022/10/11 08:40:49;;;;;;;23.87;11.17;;;8.70;99.90;;;;;;6210587;23;20039;-72
2022/10/11 08:43:35;;;;;;;16.27;9.50;;;8.80;99.90;;;;;;6211496;23;20075;-73
2022/10/11 08:46:04;;;;;;;16.30;9.80;;;8.90;99.90;;;;;;6211038;23;20036;-73
2022/10/11 08:48:49;;;;;;;15.63;9.33;;;9.00;99.90;;;;;;6209421;23;20028;-72
2022/10/11 08:51:37;;;;;;;15.10;9.17;;;9.00;99.90;;;;;;6209073;23;20381;-73
2022/10/11 08:54:41;;;;;;;17.83;9.63;;;9.20;99.90;;;;;;6211407;23;20001;-72
2022/10/11 08:57:14;;;;;;;18.58;9.68;;;9.30;99.90;;;;;;6179172;23;20047;-72
2022/10/11 08:59:56;;;;;;;16.17;9.97;;;10.30;99.90;;;;;;6209556;23;20015;-72
2022/10/11 09:02:37;;;;;;;21.03;10.17;;;9.40;99.90;;;;;;6211048;23;19997;-72
2022/10/11 09:05:03;;;;;;;22.80;10.30;;;9.50;99.90;;;;;;6211903;23;20000;-72
2022/10/11 09:07:49;;;;;;;16.03;9.07;;;9.40;99.90;;;;;;6211240;23;20076;-72
2022/10/11 09:10:20;;;;;;;21.23;10.03;;;9.70;99.90;;;;;;6209693;23;20031;-72
2022/10/11 09:13:01;;;;;;;18.47;9.80;;;9.70;99.90;;;;;;6210768;23;20058;-74
2022/10/11 09:15:39;;;;;;;21.70;9.87;;;9.90;99.90;;;;;;6211060;23;20025;-72
2022/10/11 09:18:29;;;;;;;22.67;9.20;;;9.90;99.90;;;;;;6211829;23;19997;-72
2022/10/11 09:21:24;;;;;;;11.90;8.17;;;10.00;99.90;;;;;;6182900;23;20009;-72
2022/10/11 09:24:15;;;;;;;12.17;7.53;;;10.10;99.90;;;;;;6211630;23;20068;-72
2022/10/11 09:26:46;;;;;;;17.43;7.40;;;10.20;99.90;;;;;;6211501;23;20024;-72
2022/10/11 09:29:12;;;;;;;19.40;7.57;;;10.30;99.90;;;;;;6209986;23;19996;-72
2022/10/11 09:31:37;;;;;;;14.50;6.80;;;10.40;99.90;;;;;;6209910;23;20033;-71
2022/10/11 09:34:12;;;;;;;14.83;7.83;;;10.50;99.90;;;;;;6211845;23;20090;-71
2022/10/11 09:36:46;;;;;;;15.60;7.80;;;10.60;99.90;;;;;;6209543;23;20004;-71
2022/10/11 09:39:28;;;;;;;15.73;8.30;;;10.70;99.90;;;;;;6211287;23;20004;-71
2022/10/11 09:42:00;;;;;;;19.03;6.63;;;10.80;99.90;;;;;;6209640;23;20418;-71
2022/10/11 09:44:29;;;;;;;21.30;6.97;;;11.00;99.90;;;;;;6210943;23;20019;-70
2022/10/11 09:46:56;;;;;;;10.10;5.00;;;11.00;99.90;;;;;;6210698;23;20011;-72
2022/10/11 09:49:28;;;;;;;18.63;5.53;;;11.10;99.90;;;;;;6211634;23;20083;-72
2022/10/11 09:51:57;;;;;;;10.20;4.87;;;11.20;99.90;;;;;;6209482;23;20026;-72
2022/10/11 09:54:42;;;;;;;14.80;5.03;;;11.30;99.90;;;;;;6184516;23;20001;-72
2022/10/11 09:57:27;;;;;;;;;;;11.30;99.90;;;;;;6210932;23;19996;-72
2022/10/11 10:00:03;;;;;;;8.73;3.87;;;11.40;99.90;;;;;;6210817;23;19908;-72
2022/10/11 10:02:37;;;;;;;10.23;4.13;;;11.50;99.90;;;;;;6209574;23;20031;-72
2022/10/11 10:05:05;;;;;;;8.43;3.97;;;11.50;99.90;;;;;;6210695;23;20094;-72
2022/10/11 10:07:33;;;;;;;9.73;4.37;;;11.50;99.90;;;;;;6210575;23;20083;-72
2022/10/11 10:10:34;;;;;;;13.95;4.57;;;11.60;99.90;;;;;;6209988;23;20009;-72
2022/10/11 10:13:03;;;;;;;18.27;5.13;;;11.70;99.90;;;;;;6209403;23;20047;-72
2022/10/11 10:15:34;;;;;;;7.68;3.65;;;13.10;99.90;;;;;;6209494;23;20378;-72
2022/10/11 10:18:01;;;;;;;6.88;3.67;;;12.80;99.90;;;;;;6210756;23;19996;-72
2022/10/11 10:20:33;;;;;;;16.70;4.17;;;11.80;99.90;;;;;;6210782;23;20418;-72
2022/10/11 10:23:21;;;;;;;15.23;3.90;;;11.80;99.90;;;;;;6210456;23;20005;-72
2022/10/11 10:25:50;;;;;;;13.82;3.75;;;12.60;99.90;;;;;;6189293;23;20005;-72
2022/10/11 10:28:26;;;;;;;16.23;4.97;;;12.00;99.90;;;;;;6210545;23;20442;-72
2022/10/11 10:30:55;;;;;;;8.85;3.95;;;12.00;99.90;;;;;;6210691;23;20011;-72
2022/10/11 10:33:23;;;;;;;13.18;4.32;;;12.10;99.90;;;;;;6210922;23;20004;-72
2022/10/11 10:35:57;;;;;;;12.25;4.53;;;12.00;99.90;;;;;;6209395;23;20091;-72
2022/10/11 10:38:57;;;;;;;9.20;3.70;;;12.10;99.90;;;;;;6211148;23;20313;-72
2022/10/11 10:41:23;;;;;;;13.90;3.58;;;12.10;99.90;;;;;;6177518;23;20020;-72
2022/10/11 10:43:54;;;;;;;20.60;4.43;;;12.20;99.90;;;;;;6210912;23;20000;-72
2022/10/11 10:46:23;;;;;;;9.77;3.40;;;12.30;99.90;;;;;;6209185;23;20314;-72
2022/10/11 10:48:53;;;;;;;14.63;3.25;;;12.30;99.90;;;;;;6210670;23;20011;-72
2022/10/11 10:51:37;;;;;;;9.68;3.63;;;13.00;99.90;;;;;;6183920;23;20083;-72
2022/10/11 10:54:14;;;;;;;11.38;3.20;;;12.20;99.90;;;;;;6210616;23;20064;-72
2022/10/11 10:56:47;;;;;;;13.10;3.70;;;12.30;99.90;;;;;;6210712;23;20005;-72
2022/10/11 10:59:34;;;;;;;17.10;3.85;;;12.40;99.90;;;;;;6209797;23;20012;-72
2022/10/11 11:02:08;;;;;;;10.82;3.28;;;12.30;99.90;;;;;;6210801;23;20004;-72
2022/10/11 11:04:34;;;;;;;11.07;3.83;;;12.40;99.90;;;;;;6210982;23;20330;-72
2022/10/11 11:07:03;;;;;;;12.25;4.13;;;12.30;99.90;;;;;;6210581;23;20372;-72
2022/10/11 11:09:41;;;;;;;10.27;3.28;;;12.40;99.90;;;;;;6208848;23;20005;-73
2022/10/11 11:12:16;;;;;;;8.13;3.20;;;12.50;99.90;;;;;;6210651;23;20077;-73
2022/10/11 11:14:58;;;;;;;9.23;2.20;;;13.30;99.90;;;;;;6210146;23;20593;-73
2022/10/11 11:17:48;;;;;;;10.35;2.95;;;12.50;99.90;;;;;;6210576;23;20003;-72
2022/10/11 11:20:16;;;;;;;13.85;3.05;;;12.60;99.90;;;;;;6208729;23;20009;-72
2022/10/11 11:22:51;;;;;;;13.80;2.90;;;12.50;99.90;;;;;;6210523;23;20054;-72
2022/10/11 11:25:29;;;;;;;15.73;2.47;;;12.70;99.90;;;;;;6209503;23;19996;-72
2022/10/11 11:28:19;;;;;;;15.40;2.35;;;12.70;99.90;;;;;;6209421;23;20473;-72
2022/10/11 11:30:53;;;;;;;13.38;2.47;;;12.80;99.90;;;;;;6208735;23;20091;-72
2022/10/11 11:33:37;;;;;;;9.68;2.13;;;12.70;99.90;;;;;;6210657;23;20001;-73
2022/10/11 11:36:20;;;;;;;10.65;3.25;;;12.80;99.90;;;;;;6210157;23;20004;-73
2022/10/11 11:39:00;;;;;;;9.90;2.58;;;12.80;99.90;;;;;;6183504;23;20008;-72
2022/10/11 11:41:33;;;;;;;8.23;2.38;;;12.80;99.90;;;;;;6208861;23;20005;-73
2022/10/11 11:44:26;;;;;;;14.50;2.42;;;12.90;99.90;;;;;;6210040;23;20016;-72
2022/10/11 11:46:55;;;;;;;6.78;1.83;;;13.00;99.90;;;;;;6209894;23;20000;-72
2022/10/11 11:49:28;;;;;;;4.85;1.48;;;13.10;99.90;;;;;;6210164;23;20476;-72
2022/10/11 11:51:54;;;;;;;10.02;1.85;;;13.20;99.90;;;;;;6209692;23;20005;-73
2022/10/11 11:54:24;;;;;;;8.95;1.90;;;13.20;99.90;;;;;;6209467;23;19997;-73
2022/10/11 11:56:59;;;;;;;8.93;1.67;;;13.20;99.90;;;;;;6210134;23;20082;-73
2022/10/11 11:59:56;;;;;;;8.15;1.83;;;13.80;99.90;;;;;;6210421;23;20014;-73
2022/10/11 12:02:43;;;;;;;11.85;1.48;;;13.30;99.90;;;;;;6183093;23;20275;-71
2022/10/11 12:05:12;;;;;;;7.82;1.50;;;13.40;99.90;;;;;;6209627;23;20537;-71
2022/10/11 12:07:55;;;;;;;9.73;1.63;;;13.30;99.90;;;;;;6209806;23;20010;-71
2022/10/11 12:10:36;;;;;;;8.32;1.27;;;13.40;99.90;;;;;;6209773;23;20008;-71
2022/10/11 12:13:19;;;;;;;10.23;1.70;;;13.40;99.90;;;;;;6209837;23;20004;-72
2022/10/11 12:16:03;;;;;;;13.88;2.10;;;13.50;99.90;;;;;;6208164;23;20050;-72
2022/10/11 12:18:31;;;;;;;8.32;1.48;;;14.30;99.90;;;;;;6209471;23;20497;-72
2022/10/11 12:21:34;;;;;;;11.73;1.85;;;13.80;99.90;;;;;;6208403;23;20063;-73
2022/10/11 12:24:19;;;;;;;10.25;1.85;;;13.90;99.90;;;;;;6177542;23;20011;-72
2022/10/11 12:26:53;;;;;;;9.48;1.75;;;14.00;99.90;;;;;;6209938;23;19999;-72
2022/10/11 12:29:37;;;;;;;;;;;14.10;99.90;;;;;;6211803;23;20108;-72
2022/10/11 12:32:25;;;;;;;5.55;1.10;;;14.20;99.90;;;;;;6212067;23;19908;-72
2022/10/11 12:35:29;;;;;;;9.38;1.48;;;14.40;99.90;;;;;;6210535;23;20005;-72
2022/10/11 12:38:13;;;;;;;5.30;1.70;;;14.60;99.90;;;;;;6210227;23;20054;-72
2022/10/11 12:40:44;;;;;;;6.45;1.50;;;14.70;99.90;;;;;;6210872;23;20004;-72
2022/10/11 12:43:35;;;;;;;10.35;1.55;;;14.90;99.90;;;;;;6210868;23;20027;-72
2022/10/11 12:46:39;;;;;;;5.95;1.20;;;15.00;99.90;;;;;;6211585;23;20009;-72
2022/10/11 12:49:23;;;;;;;14.63;1.50;;;15.10;99.90;;;;;;6209132;23;20004;-72
2022/10/11 12:52:02;;;;;;;14.00;1.35;;;15.10;99.90;;;;;;6211361;23;20047;-72
2022/10/11 12:55:02;;;;;;;10.75;1.60;;;15.30;99.90;;;;;;6211459;23;20005;-72
2022/10/11 12:57:54;;;;;;;6.20;1.55;;;15.20;99.90;;;;;;6211682;23;20042;-72
2022/10/11 13:00:27;;;;;;;14.18;2.78;;;15.20;99.90;;;;;;6210597;23;20011;-72
2022/10/11 13:02:58;;;;;;;5.13;1.38;;;15.10;99.90;;;;;;6211520;23;20398;-72
2022/10/11 13:05:33;;;;;;;5.03;1.48;;;15.20;99.90;;;;;;6211293;23;20063;-72
2022/10/11 13:08:02;;;;;;;8.07;1.23;;;15.10;99.90;;;;;;6211436;23;20005;-72
2022/10/11 13:10:37;;;;;;;8.23;1.73;;;15.20;99.90;;;;;;6209984;23;20012;-72
2022/10/11 13:13:08;;;;;;;10.85;1.33;;;15.20;99.90;;;;;;6211681;23;20001;-72